Flight Track Log - Related Links

Times and Time Zones

All times are in EDT time to prevent confusion due to time zone crossing. See the RPA3392 flight status page for this flight to view local times or setup timezone preferences in your user account.

Time Position Orientation Groundspeed Altitude Reporting Facility
EDT Latitude Longitude Course Direction KTS MPH feet Rate Location/Type
Thu 06:02:51 PM 44.9333 -93.2333 125° Southeast 169 194 2,700  Level Minneapolis TRACON
Thu 06:03:22 PM 44.9553 -93.2294 North 186 214 3,500 2,065 Climbing Minneapolis Center
Thu 06:04:00 PM 44.7624 -92.7859 125° Southeast  Level Estimated
Thu 06:04:24 PM 45.0092 -93.1806 33° Northeast 246 283 5,900  Level Minneapolis Center
Thu 06:05:00 PM 44.7222 -92.6409 117° Southeast  Level Estimated
Thu 06:05:26 PM 44.9828 -93.0789 110° East 287 330 8,500  Level Minneapolis Center
Thu 06:06:00 PM 44.6679 -92.5013 119° Southeast  Level FlightAware Approximate
Thu 06:06:28 PM 44.9328 -92.9833 126° Southeast 299 344 10,600  Level Minneapolis Center
Thu 06:07:00 PM 44.6265 -92.3533 130° Southeast  Level Estimated
Thu 06:07:31 PM 44.8806 -92.8731 124° Southeast 330 380 12,900  Level Minneapolis Center
Thu 06:08:00 PM 44.5844 -92.2039 125° Southeast  Level Estimated
Thu 06:08:33 PM 44.8247 -92.7594 125° Southeast 349 402 15,400  Level Minneapolis Center
Thu 06:09:35 PM 44.7681 -92.6414 124° Southeast 361 415 17,400 2,032 Climbing Minneapolis Center
Thu 06:10:37 PM 44.6958 -92.4972 125° Southeast 373 429 19,600 1,935 Climbing Minneapolis Center
Thu 06:11:39 PM 44.6347 -92.3714 124° Southeast 384 442 21,400 1,742 Climbing Minneapolis Center
Thu 06:12:41 PM 44.5700 -92.2408 125° Southeast 399 459 23,200 1,597 Climbing Minneapolis Center
Thu 06:13:43 PM 44.5025 -92.1078 125° Southeast 414 476 24,700 1,500 Climbing Minneapolis Center
Thu 06:14:45 PM 44.4306 -91.9703 126° Southeast 430 495 26,300 1,403 Climbing Minneapolis Center
Thu 06:15:47 PM 44.3600 -91.8286 125° Southeast 441 507 27,600 1,296 Climbing Minneapolis Center
Thu 06:16:50 PM 44.2897 -91.6419 118° Southeast 450 518 29,000 1,392 Climbing Minneapolis Center
Thu 06:17:52 PM 44.2308 -91.4856 118° Southeast 455 524 30,500 1,016 Climbing Minneapolis Center
Thu 06:18:54 PM 44.1694 -91.3275 118° Southeast 460 529 31,100 823 Climbing Minneapolis Center
Thu 06:19:56 PM 44.1139 -91.1831 118° Southeast 467 537 32,200 1,016 Climbing Minneapolis Center
Thu 06:20:58 PM 44.0394 -90.9906 118° Southeast 471 542 33,200 968 Climbing Minneapolis Center
Thu 06:22:00 PM 43.9753 -90.8286 119° Southeast 476 548 34,200 871 Climbing Minneapolis Center
Thu 06:23:02 PM 43.9136 -90.6681 118° Southeast 475 547 35,000 387 Climbing Minneapolis Center
Thu 06:24:04 PM 43.8508 -90.5083 119° Southeast 476 548 35,000  Level Minneapolis Center
Thu 06:25:06 PM 43.7883 -90.3467 118° Southeast 477 549 35,000  Level Minneapolis Center
Thu 06:26:08 PM 43.7106 -90.1569 120° Southeast 475 547 35,000  Level Minneapolis Center
Thu 06:27:10 PM 43.6469 -90.0008 119° Southeast 471 542 35,000  Level Minneapolis Center
Thu 06:28:12 PM 43.5844 -89.8422 119° Southeast 471 542 35,000  Level Minneapolis Center
Thu 06:29:15 PM 43.5261 -89.6797 116° Southeast 473 544 35,000  Level Minneapolis Center
Thu 06:30:17 PM 43.4789 -89.5136 111° Southeast 472 543 35,000  Level Minneapolis Center
Thu 06:35:25 PM 43.2370 -88.6860 111° Southeast 100 115 35,000  Level FlightAware ADS-B
Thu 06:36:25 PM 43.1860 -88.5190 113° Southeast 481 554 35,000  Level FlightAware ADS-B
Thu 06:37:15 PM 43.1480 -88.3870 111° Southeast 459 528 35,000 420 Level FlightAware ADS-B
Thu 06:38:05 PM 43.1130 -88.2400 108° East 461 531 35,700 780 Climbing FlightAware ADS-B
Thu 06:38:55 PM 43.0960 -88.0960 99° East 462 532 36,300 482 Climbing FlightAware ADS-B
Thu 06:39:57 PM 43.0920 -87.9260 92° East 475 547 36,600 400 Climbing FlightAware ADS-B
Thu 06:40:10 PM 43.0730 -87.8840 122° Southeast 466 536 36,800 444 Climbing FlightAware ADS-B
Thu 06:40:51 PM 43.0600 -87.7660 99° East 482 555 37,000 133 Climbing FlightAware ADS-B
Thu 06:41:40 PM 43.0420 -87.6120 99° East 486 559 37,000  Level FlightAware ADS-B
Thu 06:42:21 PM 43.0320 -87.4900 96° East 498 573 37,000  Level FlightAware ADS-B
Thu 06:43:21 PM 43.0240 -87.3300 94° East 498 573 37,000  Level FlightAware ADS-B
Thu 06:44:21 PM 43.0150 -87.1700 94° East 498 573 37,000  Level FlightAware ADS-B
Thu 06:45:20 PM 42.9670 -86.9480 106° East 480 552 37,000  Level FlightAware ADS-B
Thu 06:46:00 PM 42.9520 -86.8230 99° East 489 563 37,000  Level FlightAware ADS-B
Thu 06:46:45 PM 42.9340 -86.6890 100° East 488 562 37,000  Level FlightAware ADS-B
Thu 06:47:51 PM 42.9050 -86.5210 103° East 488 562 37,000  Level FlightAware ADS-B
Thu 06:48:51 PM 42.8790 -86.3670 103° East 488 562 37,000  Level FlightAware ADS-B
Thu 06:49:39 PM 42.8590 -86.2450 103° East 488 562 37,000  Level FlightAware ADS-B
Thu 06:50:31 PM 42.8590 -86.0380 90° East 488 562 37,000  Level FlightAware ADS-B
Thu 06:50:56 PM 42.8390 -85.9390 105° East 488 562 37,000  Level FlightAware ADS-B
Thu 06:52:00 PM 42.8200 -85.7620 98° East 471 542 37,000  Level FlightAware ADS-B
Thu 06:52:36 PM 42.8060 -85.6730 102° East 471 542 37,000  Level FlightAware ADS-B
Thu 06:53:20 PM 42.7860 -85.5080 99° East 482 555 37,000  Level FlightAware ADS-B
Thu 06:53:56 PM 42.7560 -85.4100 113° Southeast 486 559 37,000  Level FlightAware ADS-B
Thu 06:55:13 PM 42.6920 -85.2300 116° Southeast 486 559 37,000  Level FlightAware ADS-B
Thu 06:56:00 PM 42.6520 -85.1200 116° Southeast 486 559 37,000  Level FlightAware ADS-B
Thu 06:56:36 PM 42.6220 -85.0360 116° Southeast 486 559 37,000  Level FlightAware ADS-B
Thu 06:57:24 PM 42.5820 -84.9240 116° Southeast 486 559 37,000  Level FlightAware ADS-B
Thu 06:58:13 PM 42.5410 -84.8100 116° Southeast 486 559 37,000  Level FlightAware ADS-B
Thu 06:58:49 PM 42.5110 -84.7260 116° Southeast 486 559 37,000  Level FlightAware ADS-B
Thu 06:59:14 PM 42.4900 -84.6680 116° Southeast 486 559 37,000  Level FlightAware ADS-B
Thu 06:59:50 PM 42.4590 -84.5840 117° Southeast 486 559 37,000  Level FlightAware ADS-B
Thu 07:00:38 PM 42.4190 -84.4720 116° Southeast 486 559 37,000  Level FlightAware ADS-B
Thu 07:01:24 PM 42.3810 -84.3650 116° Southeast 486 559 37,000  Level FlightAware ADS-B
Thu 07:02:12 PM 42.3400 -84.2540 117° Southeast 486 559 37,000  Level FlightAware ADS-B
Thu 07:03:15 PM 42.2880 -84.1070 116° Southeast 486 559 37,000  Level FlightAware ADS-B
Thu 07:03:51 PM 42.2570 -84.0240 117° Southeast 486 559 37,000  Level FlightAware ADS-B
Thu 07:04:22 PM 41.9428 -83.8036 117° Southeast 491 565 37,000  Level Cleveland Center
Thu 07:05:24 PM 41.8581 -83.6653 129° Southeast 487 560 37,000  Level Cleveland Center
Thu 07:06:26 PM 41.7719 -83.5275 130° Southeast 488 562 37,000  Level Cleveland Center
Thu 07:07:28 PM 41.6678 -83.3636 130° Southeast 486 559 37,000  Level Cleveland Center
Thu 07:08:30 PM 41.5811 -83.2261 130° Southeast 488 562 37,000  Level Cleveland Center
Thu 07:09:32 PM 41.4869 -83.0792 131° Southeast 489 563 37,000  Level Cleveland Center
Thu 07:10:34 PM 41.3983 -82.9411 131° Southeast 487 560 37,000  Level Cleveland Center
Thu 07:11:37 PM 41.3100 -82.8019 130° Southeast 489 563 37,000  Level Cleveland Center
Thu 07:12:39 PM 41.2200 -82.6644 131° Southeast 489 563 37,000  Level Cleveland Center
Thu 07:13:41 PM 41.1319 -82.5264 130° Southeast 489 563 37,000  Level Cleveland Center
Thu 07:14:43 PM 41.0261 -82.3664 131° Southeast 492 566 37,000  Level Cleveland Center
Thu 07:15:45 PM 40.9358 -82.2281 131° Southeast 494 568 37,000  Level Cleveland Center
Thu 07:16:47 PM 40.8464 -82.0906 131° Southeast 494 568 37,000  Level Cleveland Center
Thu 07:17:49 PM 40.7556 -81.9547 131° Southeast 493 567 37,000  Level Cleveland Center
Thu 07:18:51 PM 40.6650 -81.8183 131° Southeast 493 567 37,000  Level Cleveland Center
Thu 07:19:53 PM 40.5767 -81.6797 130° Southeast 494 568 37,000  Level Cleveland Center
Thu 07:20:55 PM 40.4847 -81.5058 125° Southeast 495 570 37,000  Level Cleveland Center
Thu 07:21:57 PM 40.4083 -81.3539 123° Southeast 502 578 37,000  Level Cleveland Center
Thu 07:22:59 PM 40.3308 -81.2072 125° Southeast 495 570 37,000  Level Cleveland Center
Thu 07:24:01 PM 40.2506 -81.0611 126° Southeast 498 573 37,000  Level Cleveland Center
Thu 07:25:03 PM 40.1722 -80.9122 125° Southeast 502 578 37,000  Level Cleveland Center
Thu 07:26:05 PM 40.0928 -80.7658 125° Southeast 500 575 37,000  Level Cleveland Center
Thu 07:27:07 PM 39.9983 -80.5883 125° Southeast 505 581 37,000  Level Cleveland Center
Thu 07:28:09 PM 39.9181 -80.4414 125° Southeast 504 580 37,000 -484 Level Cleveland Center
Thu 07:29:11 PM 39.8372 -80.2942 126° Southeast 507 583 36,000 -919 Descending Cleveland Center
Thu 07:30:13 PM 39.7553 -80.1458 126° Southeast 511 588 35,100 -919 Descending Cleveland Center
Thu 07:31:15 PM 39.6733 -79.9972 126° Southeast 511 588 34,100 -1,067 Descending Cleveland Center
Thu 07:32:28 PM 39.5611 -79.7936 126° Southeast 494 568 32,700 -1,209 Descending Washington Center
Thu 07:33:29 PM 39.4808 -79.6489 126° Southeast 499 574 31,400 -857 Descending Washington Center
Thu 07:34:27 PM 39.3939 -79.4992 127° Southeast 499 574 31,000 -706 Descending Washington Center
Thu 07:35:28 PM 39.3114 -79.3444 125° Southeast 509 586 30,000 -1,672 Descending Washington Center
Thu 07:36:29 PM 39.2492 -79.1992 119° Southeast 516 594 27,600 -1,835 Descending Washington Center
Thu 07:37:29 PM 39.2275 -79.0158 99° East 506 582 26,300 -1,729 Descending Washington Center
Thu 07:38:27 PM 39.2094 -78.8356 97° East 500 575 24,200 -2,571 Descending Washington Center
Thu 07:39:28 PM 39.1931 -78.6714 97° East 483 556 21,200 -2,607 Descending Washington Center
Thu 07:40:29 PM 39.1800 -78.5208 96° East 451 519 18,900 -2,033 Descending Washington Center
Thu 07:41:29 PM 39.1644 -78.3811 98° East 413 475 17,100 -900 Descending Washington Center
Thu 07:42:29 PM 39.1342 -78.2514 107° East 383 441 17,100 -51 Level Washington Center
Thu 07:43:27 PM 39.1036 -78.1272 108° East 377 434 17,000 -864 Descending Washington Center
Thu 07:44:27 PM 39.0667 -77.9869 109° East 377 434 15,400 -1,835 Descending Washington Center
Thu 07:45:28 PM 39.0378 -77.8658 107° East 364 419 13,300 -1,820 Descending Washington Center
Thu 07:46:29 PM 39.0086 -77.7528 108° East 340 391 11,700 -1,714 Descending Washington Center
Thu 07:47:27 PM 38.9792 -77.6503 110° East 319 367 9,900 -1,373 Descending Washington Center
Thu 07:48:27 PM 38.9453 -77.5506 114° Southeast 308 354 9,000 -958 Descending Washington Center
Thu 07:49:26 PM 38.9167 -77.4500 110° East 302 348 8,000 -1,211 Descending Potomac TRACON
Thu 07:50:21 PM 38.8667 -77.3667 128° Southeast 297 342 6,700 -1,150 Descending Potomac TRACON
Thu 07:51:26 PM 38.8333 -77.2667 113° Southeast 289 333 5,700 -1,350 Descending Potomac TRACON
Thu 07:52:21 PM 38.8000 -77.1833 117° Southeast 287 330 4,000 -1,339 Descending Potomac TRACON
Thu 07:53:27 PM 38.7333 -77.1167 142° Southeast 261 300 3,000 -667 Descending Potomac TRACON
Thu 07:54:27 PM 38.6833 -77.1000 165° South 210 242 2,600 -250 Descending Potomac TRACON
Thu 07:55:27 PM 38.7167 -77.0500 49° Northeast 177 204 2,500 -211 Descending Potomac TRACON
Thu 07:56:21 PM 38.7500 -77.0333 21° North 144 166 2,200 -632 Descending Potomac TRACON
Thu 07:57:21 PM 38.7833 -77.0333 360° North 141 162 1,300 -800 Descending Potomac TRACON
Thu 07:58:21 PM 38.8167 -77.0167 21° North 124 143 600 -700 Descending Potomac TRACON

Login

Don't have an account? Register now (free) for customized features, flight alerts, and more!